sensor_id;sensor_type;location;lat;lon;timestamp;P1;durP1;ratioP1;P2;durP2;ratioP2
77571;SDS011;67214;47.454;18.966;2023-02-28T00:01:22;13.60;;;6.78;;
77571;SDS011;67214;47.454;18.966;2023-02-28T00:03:49;14.78;;;8.10;;
77571;SDS011;67214;47.454;18.966;2023-02-28T00:06:17;12.07;;;7.37;;
77571;SDS011;67214;47.454;18.966;2023-02-28T00:08:45;14.25;;;7.10;;
77571;SDS011;67214;47.454;18.966;2023-02-28T00:11:13;13.53;;;7.62;;
77571;SDS011;67214;47.454;18.966;2023-02-28T00:13:43;13.32;;;7.10;;
77571;SDS011;67214;47.454;18.966;2023-02-28T00:16:14;13.00;;;6.70;;
77571;SDS011;67214;47.454;18.966;2023-02-28T00:18:43;12.85;;;7.15;;
77571;SDS011;67214;47.454;18.966;2023-02-28T00:21:10;11.05;;;6.83;;
77571;SDS011;67214;47.454;18.966;2023-02-28T00:23:38;14.23;;;8.05;;
77571;SDS011;67214;47.454;18.966;2023-02-28T00:26:05;13.28;;;7.80;;
77571;SDS011;67214;47.454;18.966;2023-02-28T00:28:33;14.90;;;7.67;;
77571;SDS011;67214;47.454;18.966;2023-02-28T00:31:00;13.65;;;7.33;;
77571;SDS011;67214;47.454;18.966;2023-02-28T00:33:30;13.55;;;7.65;;
77571;SDS011;67214;47.454;18.966;2023-02-28T00:36:04;12.93;;;7.67;;
77571;SDS011;67214;47.454;18.966;2023-02-28T00:38:33;13.62;;;7.80;;
77571;SDS011;67214;47.454;18.966;2023-02-28T00:41:00;11.25;;;7.17;;
77571;SDS011;67214;47.454;18.966;2023-02-28T00:43:34;11.80;;;7.58;;
77571;SDS011;67214;47.454;18.966;2023-02-28T00:46:04;12.82;;;7.58;;
77571;SDS011;67214;47.454;18.966;2023-02-28T00:48:32;12.98;;;7.62;;
77571;SDS011;67214;47.454;18.966;2023-02-28T00:50:59;12.30;;;7.60;;
77571;SDS011;67214;47.454;18.966;2023-02-28T00:53:27;12.28;;;7.35;;
77571;SDS011;67214;47.454;18.966;2023-02-28T00:55:55;13.13;;;7.85;;
77571;SDS011;67214;47.454;18.966;2023-02-28T00:58:22;13.20;;;6.80;;
77571;SDS011;67214;47.454;18.966;2023-02-28T01:00:50;12.00;;;6.67;;
77571;SDS011;67214;47.454;18.966;2023-02-28T01:03:19;10.65;;;7.25;;
77571;SDS011;67214;47.454;18.966;2023-02-28T01:05:48;14.45;;;7.65;;
77571;SDS011;67214;47.454;18.966;2023-02-28T01:08:15;12.88;;;7.40;;
77571;SDS011;67214;47.454;18.966;2023-02-28T01:10:43;12.05;;;7.53;;
77571;SDS011;67214;47.454;18.966;2023-02-28T01:13:11;13.43;;;7.60;;
77571;SDS011;67214;47.454;18.966;2023-02-28T01:15:45;12.50;;;7.00;;
77571;SDS011;67214;47.454;18.966;2023-02-28T01:18:09;14.23;;;8.35;;
77571;SDS011;67214;47.454;18.966;2023-02-28T01:20:37;16.37;;;8.33;;
77571;SDS011;67214;47.454;18.966;2023-02-28T01:23:05;17.75;;;7.37;;
77571;SDS011;67214;47.454;18.966;2023-02-28T01:25:34;12.63;;;7.67;;
77571;SDS011;67214;47.454;18.966;2023-02-28T01:28:02;13.10;;;7.47;;
77571;SDS011;67214;47.454;18.966;2023-02-28T01:30:30;10.72;;;7.12;;
77571;SDS011;67214;47.454;18.966;2023-02-28T01:32:59;12.50;;;8.18;;
77571;SDS011;67214;47.454;18.966;2023-02-28T01:35:26;13.45;;;8.00;;
77571;SDS011;67214;47.454;18.966;2023-02-28T01:37:54;12.37;;;7.55;;
77571;SDS011;67214;47.454;18.966;2023-02-28T01:40:22;12.93;;;7.05;;
77571;SDS011;67214;47.454;18.966;2023-02-28T01:42:49;11.00;;;6.70;;
77571;SDS011;67214;47.454;18.966;2023-02-28T01:45:25;15.48;;;7.78;;
77571;SDS011;67214;47.454;18.966;2023-02-28T01:47:58;11.35;;;7.08;;
77571;SDS011;67214;47.454;18.966;2023-02-28T01:50:27;10.25;;;6.72;;
77571;SDS011;67214;47.454;18.966;2023-02-28T01:52:58;10.63;;;6.53;;
77571;SDS011;67214;47.454;18.966;2023-02-28T01:55:27;9.80;;;6.30;;
77571;SDS011;67214;47.454;18.966;2023-02-28T01:57:56;10.38;;;7.12;;
77571;SDS011;67214;47.454;18.966;2023-02-28T02:00:27;9.95;;;6.30;;
77571;SDS011;67214;47.454;18.966;2023-02-28T02:02:57;11.33;;;6.92;;
77571;SDS011;67214;47.454;18.966;2023-02-28T02:05:28;13.40;;;7.15;;
77571;SDS011;67214;47.454;18.966;2023-02-28T02:07:58;9.65;;;6.33;;
77571;SDS011;67214;47.454;18.966;2023-02-28T02:10:34;12.15;;;6.58;;
77571;SDS011;67214;47.454;18.966;2023-02-28T02:15:46;9.98;;;5.30;;
77571;SDS011;67214;47.454;18.966;2023-02-28T02:18:36;8.98;;;5.92;;
77571;SDS011;67214;47.454;18.966;2023-02-28T02:26:44;12.07;;;5.75;;
77571;SDS011;67214;47.454;18.966;2023-02-28T02:29:26;9.35;;;4.95;;
77571;SDS011;67214;47.454;18.966;2023-02-28T02:46:18;6.95;;;5.20;;
77571;SDS011;67214;47.454;18.966;2023-02-28T02:48:56;10.08;;;5.47;;
77571;SDS011;67214;47.454;18.966;2023-02-28T02:51:26;7.90;;;5.17;;
77571;SDS011;67214;47.454;18.966;2023-02-28T02:53:57;8.48;;;5.35;;
77571;SDS011;67214;47.454;18.966;2023-02-28T02:56:28;10.53;;;5.12;;
77571;SDS011;67214;47.454;18.966;2023-02-28T02:58:59;11.63;;;5.97;;
77571;SDS011;67214;47.454;18.966;2023-02-28T03:01:28;12.43;;;6.28;;
77571;SDS011;67214;47.454;18.966;2023-02-28T03:03:58;10.60;;;6.42;;
77571;SDS011;67214;47.454;18.966;2023-02-28T03:06:33;10.68;;;6.30;;
77571;SDS011;67214;47.454;18.966;2023-02-28T03:09:01;12.55;;;6.70;;
77571;SDS011;67214;47.454;18.966;2023-02-28T03:11:30;11.08;;;6.45;;
77571;SDS011;67214;47.454;18.966;2023-02-28T03:14:03;12.25;;;6.10;;
77571;SDS011;67214;47.454;18.966;2023-02-28T03:30:45;8.85;;;5.67;;
77571;SDS011;67214;47.454;18.966;2023-02-28T03:33:13;10.18;;;5.60;;
77571;SDS011;67214;47.454;18.966;2023-02-28T03:35:47;12.33;;;6.10;;
77571;SDS011;67214;47.454;18.966;2023-02-28T03:38:21;10.25;;;5.70;;
77571;SDS011;67214;47.454;18.966;2023-02-28T03:40:50;10.03;;;5.47;;
77571;SDS011;67214;47.454;18.966;2023-02-28T03:43:22;10.30;;;5.28;;
77571;SDS011;67214;47.454;18.966;2023-02-28T03:45:50;8.68;;;5.28;;
77571;SDS011;67214;47.454;18.966;2023-02-28T03:48:20;10.58;;;6.03;;
77571;SDS011;67214;47.454;18.966;2023-02-28T03:50:53;9.73;;;5.20;;
77571;SDS011;67214;47.454;18.966;2023-02-28T03:53:27;8.55;;;4.65;;
77571;SDS011;67214;47.454;18.966;2023-02-28T03:56:01;8.68;;;5.22;;
77571;SDS011;67214;47.454;18.966;2023-02-28T04:01:20;9.78;;;5.78;;
77571;SDS011;67214;47.454;18.966;2023-02-28T04:03:49;11.38;;;5.25;;
77571;SDS011;67214;47.454;18.966;2023-02-28T04:06:20;9.60;;;5.62;;
77571;SDS011;67214;47.454;18.966;2023-02-28T04:08:49;10.38;;;6.05;;
77571;SDS011;67214;47.454;18.966;2023-02-28T04:11:29;8.08;;;5.20;;
77571;SDS011;67214;47.454;18.966;2023-02-28T04:14:04;10.40;;;6.25;;
77571;SDS011;67214;47.454;18.966;2023-02-28T04:16:33;10.00;;;5.37;;
77571;SDS011;67214;47.454;18.966;2023-02-28T04:19:03;10.68;;;5.67;;
77571;SDS011;67214;47.454;18.966;2023-02-28T04:21:33;8.50;;;4.90;;
77571;SDS011;67214;47.454;18.966;2023-02-28T04:24:02;11.30;;;5.72;;
77571;SDS011;67214;47.454;18.966;2023-02-28T04:26:31;11.73;;;5.67;;
77571;SDS011;67214;47.454;18.966;2023-02-28T04:29:03;10.78;;;5.70;;
77571;SDS011;67214;47.454;18.966;2023-02-28T04:31:33;14.38;;;6.08;;
77571;SDS011;67214;47.454;18.966;2023-02-28T04:34:00;10.98;;;5.25;;
77571;SDS011;67214;47.454;18.966;2023-02-28T04:36:28;8.75;;;5.80;;
77571;SDS011;67214;47.454;18.966;2023-02-28T04:38:56;10.43;;;5.92;;
77571;SDS011;67214;47.454;18.966;2023-02-28T04:41:24;10.48;;;5.97;;
77571;SDS011;67214;47.454;18.966;2023-02-28T04:43:51;9.23;;;6.35;;
77571;SDS011;67214;47.454;18.966;2023-02-28T04:46:19;9.93;;;6.03;;
77571;SDS011;67214;47.454;18.966;2023-02-28T04:48:46;8.98;;;5.67;;
77571;SDS011;67214;47.454;18.966;2023-02-28T04:51:15;10.32;;;6.40;;
77571;SDS011;67214;47.454;18.966;2023-02-28T04:53:45;11.22;;;6.67;;
77571;SDS011;67214;47.454;18.966;2023-02-28T04:56:15;11.40;;;6.85;;
77571;SDS011;67214;47.454;18.966;2023-02-28T04:58:43;13.30;;;6.60;;
77571;SDS011;67214;47.454;18.966;2023-02-28T05:01:24;10.45;;;6.35;;
77571;SDS011;67214;47.454;18.966;2023-02-28T05:03:55;11.05;;;6.97;;
77571;SDS011;67214;47.454;18.966;2023-02-28T05:06:24;13.13;;;7.05;;
77571;SDS011;67214;47.454;18.966;2023-02-28T05:08:53;11.70;;;6.55;;
77571;SDS011;67214;47.454;18.966;2023-02-28T05:11:25;11.08;;;6.58;;
77571;SDS011;67214;47.454;18.966;2023-02-28T05:13:56;10.05;;;6.00;;
77571;SDS011;67214;47.454;18.966;2023-02-28T05:16:24;11.97;;;6.10;;
77571;SDS011;67214;47.454;18.966;2023-02-28T05:18:51;11.88;;;6.83;;
77571;SDS011;67214;47.454;18.966;2023-02-28T05:21:22;10.13;;;6.67;;
77571;SDS011;67214;47.454;18.966;2023-02-28T05:24:05;8.70;;;5.67;;
77571;SDS011;67214;47.454;18.966;2023-02-28T05:26:35;12.78;;;7.28;;
77571;SDS011;67214;47.454;18.966;2023-02-28T05:29:04;13.03;;;7.58;;
77571;SDS011;67214;47.454;18.966;2023-02-28T05:31:32;11.75;;;6.90;;
77571;SDS011;67214;47.454;18.966;2023-02-28T05:34:00;12.70;;;7.10;;
77571;SDS011;67214;47.454;18.966;2023-02-28T05:36:29;11.28;;;6.95;;
77571;SDS011;67214;47.454;18.966;2023-02-28T05:38:58;13.05;;;6.37;;
77571;SDS011;67214;47.454;18.966;2023-02-28T05:41:26;10.58;;;6.97;;
77571;SDS011;67214;47.454;18.966;2023-02-28T05:43:53;13.98;;;7.28;;
77571;SDS011;67214;47.454;18.966;2023-02-28T05:46:21;10.00;;;7.05;;
77571;SDS011;67214;47.454;18.966;2023-02-28T05:48:48;11.12;;;6.80;;
77571;SDS011;67214;47.454;18.966;2023-02-28T05:51:16;14.13;;;7.05;;
77571;SDS011;67214;47.454;18.966;2023-02-28T05:53:44;11.18;;;6.92;;
77571;SDS011;67214;47.454;18.966;2023-02-28T05:56:12;11.85;;;6.87;;
77571;SDS011;67214;47.454;18.966;2023-02-28T05:58:40;10.25;;;6.00;;
77571;SDS011;67214;47.454;18.966;2023-02-28T06:01:27;11.48;;;6.30;;
77571;SDS011;67214;47.454;18.966;2023-02-28T06:03:50;10.13;;;6.08;;
77571;SDS011;67214;47.454;18.966;2023-02-28T06:06:18;13.95;;;7.28;;
77571;SDS011;67214;47.454;18.966;2023-02-28T06:08:45;13.85;;;7.90;;
77571;SDS011;67214;47.454;18.966;2023-02-28T06:11:13;13.70;;;7.92;;
77571;SDS011;67214;47.454;18.966;2023-02-28T06:13:40;13.43;;;7.53;;
77571;SDS011;67214;47.454;18.966;2023-02-28T06:16:09;13.28;;;8.70;;
77571;SDS011;67214;47.454;18.966;2023-02-28T06:18:37;11.57;;;7.55;;
77571;SDS011;67214;47.454;18.966;2023-02-28T06:21:05;11.63;;;6.92;;
77571;SDS011;67214;47.454;18.966;2023-02-28T06:23:34;11.33;;;6.75;;
77571;SDS011;67214;47.454;18.966;2023-02-28T06:26:01;11.68;;;6.25;;
77571;SDS011;67214;47.454;18.966;2023-02-28T06:28:29;12.68;;;6.10;;
77571;SDS011;67214;47.454;18.966;2023-02-28T06:30:56;11.00;;;6.42;;
77571;SDS011;67214;47.454;18.966;2023-02-28T06:33:24;12.07;;;6.83;;
77571;SDS011;67214;47.454;18.966;2023-02-28T06:35:51;10.55;;;5.72;;
77571;SDS011;67214;47.454;18.966;2023-02-28T06:38:19;10.28;;;5.75;;
77571;SDS011;67214;47.454;18.966;2023-02-28T06:40:52;9.93;;;5.50;;
77571;SDS011;67214;47.454;18.966;2023-02-28T06:43:22;10.18;;;6.00;;
77571;SDS011;67214;47.454;18.966;2023-02-28T06:45:53;11.88;;;6.05;;
77571;SDS011;67214;47.454;18.966;2023-02-28T06:48:24;11.95;;;6.03;;
77571;SDS011;67214;47.454;18.966;2023-02-28T06:51:00;13.78;;;6.50;;
77571;SDS011;67214;47.454;18.966;2023-02-28T06:53:35;13.80;;;7.78;;
77571;SDS011;67214;47.454;18.966;2023-02-28T06:56:10;16.67;;;6.75;;
77571;SDS011;67214;47.454;18.966;2023-02-28T06:58:34;9.75;;;5.55;;
77571;SDS011;67214;47.454;18.966;2023-02-28T07:01:03;13.05;;;6.85;;
77571;SDS011;67214;47.454;18.966;2023-02-28T07:03:31;10.78;;;6.00;;
77571;SDS011;67214;47.454;18.966;2023-02-28T07:05:59;9.38;;;5.33;;
77571;SDS011;67214;47.454;18.966;2023-02-28T07:08:27;13.08;;;5.85;;
77571;SDS011;67214;47.454;18.966;2023-02-28T07:10:54;12.75;;;6.05;;
77571;SDS011;67214;47.454;18.966;2023-02-28T07:13:22;19.70;;;6.40;;
77571;SDS011;67214;47.454;18.966;2023-02-28T07:15:59;10.78;;;5.92;;
77571;SDS011;67214;47.454;18.966;2023-02-28T07:18:24;11.70;;;5.20;;
77571;SDS011;67214;47.454;18.966;2023-02-28T07:20:51;12.50;;;5.55;;
77571;SDS011;67214;47.454;18.966;2023-02-28T07:23:19;10.65;;;5.40;;
77571;SDS011;67214;47.454;18.966;2023-02-28T07:25:47;10.23;;;5.87;;
77571;SDS011;67214;47.454;18.966;2023-02-28T07:28:15;12.35;;;6.28;;
77571;SDS011;67214;47.454;18.966;2023-02-28T07:30:43;8.58;;;5.15;;
77571;SDS011;67214;47.454;18.966;2023-02-28T07:33:10;11.03;;;5.00;;
77571;SDS011;67214;47.454;18.966;2023-02-28T07:35:38;11.40;;;5.83;;
77571;SDS011;67214;47.454;18.966;2023-02-28T07:38:06;8.75;;;5.35;;
77571;SDS011;67214;47.454;18.966;2023-02-28T07:40:34;9.30;;;5.60;;
77571;SDS011;67214;47.454;18.966;2023-02-28T07:43:02;9.33;;;5.25;;
77571;SDS011;67214;47.454;18.966;2023-02-28T07:45:30;11.48;;;5.00;;
77571;SDS011;67214;47.454;18.966;2023-02-28T07:48:00;14.40;;;6.22;;
77571;SDS011;67214;47.454;18.966;2023-02-28T07:50:28;10.25;;;5.42;;
77571;SDS011;67214;47.454;18.966;2023-02-28T07:52:57;8.68;;;5.35;;
77571;SDS011;67214;47.454;18.966;2023-02-28T07:55:24;8.70;;;5.53;;
77571;SDS011;67214;47.454;18.966;2023-02-28T07:57:52;10.98;;;5.83;;
77571;SDS011;67214;47.454;18.966;2023-02-28T08:00:20;17.05;;;6.08;;
77571;SDS011;67214;47.454;18.966;2023-02-28T08:02:47;16.05;;;5.60;;
77571;SDS011;67214;47.454;18.966;2023-02-28T08:05:15;8.73;;;4.58;;
77571;SDS011;67214;47.454;18.966;2023-02-28T08:07:42;9.50;;;4.67;;
77571;SDS011;67214;47.454;18.966;2023-02-28T08:10:10;10.75;;;4.87;;
77571;SDS011;67214;47.454;18.966;2023-02-28T08:12:37;12.18;;;5.67;;
77571;SDS011;67214;47.454;18.966;2023-02-28T08:15:05;12.15;;;5.05;;
77571;SDS011;67214;47.454;18.966;2023-02-28T08:17:33;10.25;;;4.53;;
77571;SDS011;67214;47.454;18.966;2023-02-28T08:20:01;8.18;;;4.35;;
77571;SDS011;67214;47.454;18.966;2023-02-28T08:22:29;7.95;;;4.05;;
77571;SDS011;67214;47.454;18.966;2023-02-28T08:24:58;14.00;;;4.12;;
77571;SDS011;67214;47.454;18.966;2023-02-28T08:27:25;9.08;;;4.15;;
77571;SDS011;67214;47.454;18.966;2023-02-28T08:29:53;8.53;;;4.72;;
77571;SDS011;67214;47.454;18.966;2023-02-28T08:32:20;7.37;;;4.33;;
77571;SDS011;67214;47.454;18.966;2023-02-28T08:34:48;8.05;;;5.35;;
77571;SDS011;67214;47.454;18.966;2023-02-28T08:37:15;9.38;;;4.47;;
77571;SDS011;67214;47.454;18.966;2023-02-28T08:39:42;6.45;;;4.20;;
77571;SDS011;67214;47.454;18.966;2023-02-28T08:42:10;8.63;;;4.55;;
77571;SDS011;67214;47.454;18.966;2023-02-28T08:44:37;10.95;;;5.97;;
77571;SDS011;67214;47.454;18.966;2023-02-28T08:47:05;9.08;;;5.08;;
77571;SDS011;67214;47.454;18.966;2023-02-28T08:49:33;8.15;;;4.50;;
77571;SDS011;67214;47.454;18.966;2023-02-28T08:52:01;9.05;;;5.28;;
77571;SDS011;67214;47.454;18.966;2023-02-28T08:54:28;8.00;;;4.80;;
77571;SDS011;67214;47.454;18.966;2023-02-28T08:56:57;10.85;;;5.35;;
77571;SDS011;67214;47.454;18.966;2023-02-28T08:59:25;9.23;;;4.58;;
77571;SDS011;67214;47.454;18.966;2023-02-28T09:01:52;7.65;;;4.33;;
77571;SDS011;67214;47.454;18.966;2023-02-28T09:04:21;9.00;;;4.60;;
77571;SDS011;67214;47.454;18.966;2023-02-28T09:06:49;7.03;;;4.50;;
77571;SDS011;67214;47.454;18.966;2023-02-28T09:09:16;7.60;;;4.75;;
77571;SDS011;67214;47.454;18.966;2023-02-28T09:11:44;5.83;;;4.40;;
77571;SDS011;67214;47.454;18.966;2023-02-28T09:14:11;8.83;;;5.97;;
77571;SDS011;67214;47.454;18.966;2023-02-28T09:16:39;11.00;;;5.70;;
77571;SDS011;67214;47.454;18.966;2023-02-28T09:19:06;10.20;;;4.97;;
77571;SDS011;67214;47.454;18.966;2023-02-28T09:21:39;8.98;;;5.00;;
77571;SDS011;67214;47.454;18.966;2023-02-28T09:24:07;8.73;;;5.08;;
77571;SDS011;67214;47.454;18.966;2023-02-28T09:26:36;8.85;;;5.15;;
77571;SDS011;67214;47.454;18.966;2023-02-28T09:29:04;7.08;;;5.10;;
77571;SDS011;67214;47.454;18.966;2023-02-28T09:31:32;8.93;;;4.80;;
77571;SDS011;67214;47.454;18.966;2023-02-28T09:34:01;10.65;;;5.45;;
77571;SDS011;67214;47.454;18.966;2023-02-28T09:36:33;9.48;;;5.12;;
77571;SDS011;67214;47.454;18.966;2023-02-28T09:39:02;10.93;;;5.78;;
77571;SDS011;67214;47.454;18.966;2023-02-28T09:41:32;10.23;;;5.90;;
77571;SDS011;67214;47.454;18.966;2023-02-28T09:44:10;9.18;;;5.97;;
77571;SDS011;67214;47.454;18.966;2023-02-28T09:46:41;10.35;;;6.35;;
77571;SDS011;67214;47.454;18.966;2023-02-28T09:49:15;9.48;;;6.08;;
77571;SDS011;67214;47.454;18.966;2023-02-28T09:54:22;9.03;;;5.83;;
77571;SDS011;67214;47.454;18.966;2023-02-28T09:57:01;8.25;;;5.35;;
77571;SDS011;67214;47.454;18.966;2023-02-28T10:04:47;9.75;;;5.22;;
77571;SDS011;67214;47.454;18.966;2023-02-28T10:07:30;7.53;;;4.95;;
77571;SDS011;67214;47.454;18.966;2023-02-28T10:10:04;10.88;;;5.70;;
77571;SDS011;67214;47.454;18.966;2023-02-28T10:12:34;9.38;;;5.78;;
77571;SDS011;67214;47.454;18.966;2023-02-28T10:15:05;11.33;;;6.87;;
77571;SDS011;67214;47.454;18.966;2023-02-28T10:17:37;9.63;;;5.67;;
77571;SDS011;67214;47.454;18.966;2023-02-28T10:20:05;13.50;;;7.15;;
77571;SDS011;67214;47.454;18.966;2023-02-28T10:22:52;11.38;;;5.78;;
77571;SDS011;67214;47.454;18.966;2023-02-28T10:25:35;8.18;;;5.65;;
77571;SDS011;67214;47.454;18.966;2023-02-28T10:28:13;11.65;;;5.65;;
77571;SDS011;67214;47.454;18.966;2023-02-28T10:30:47;8.20;;;5.58;;
77571;SDS011;67214;47.454;18.966;2023-02-28T10:35:51;8.68;;;5.03;;
77571;SDS011;67214;47.454;18.966;2023-02-28T10:38:23;10.88;;;5.25;;
77571;SDS011;67214;47.454;18.966;2023-02-28T10:41:16;10.98;;;5.40;;
77571;SDS011;67214;47.454;18.966;2023-02-28T10:43:33;9.60;;;5.45;;
77571;SDS011;67214;47.454;18.966;2023-02-28T10:46:03;9.33;;;5.05;;
77571;SDS011;67214;47.454;18.966;2023-02-28T10:48:45;7.30;;;5.22;;
77571;SDS011;67214;47.454;18.966;2023-02-28T10:51:27;10.58;;;5.42;;
77571;SDS011;67214;47.454;18.966;2023-02-28T10:54:03;9.93;;;5.30;;
77571;SDS011;67214;47.454;18.966;2023-02-28T10:56:32;7.92;;;5.33;;
77571;SDS011;67214;47.454;18.966;2023-02-28T11:01:54;29.00;;;14.40;;
77571;SDS011;67214;47.454;18.966;2023-02-28T11:06:58;9.88;;;5.25;;
77571;SDS011;67214;47.454;18.966;2023-02-28T11:12:01;8.58;;;5.37;;
77571;SDS011;67214;47.454;18.966;2023-02-28T11:14:32;8.65;;;4.42;;
77571;SDS011;67214;47.454;18.966;2023-02-28T11:17:24;6.55;;;4.90;;
77571;SDS011;67214;47.454;18.966;2023-02-28T11:19:51;10.85;;;5.53;;
77571;SDS011;67214;47.454;18.966;2023-02-28T11:22:24;7.87;;;5.15;;
77571;SDS011;67214;47.454;18.966;2023-02-28T11:25:06;7.03;;;4.72;;
77571;SDS011;67214;47.454;18.966;2023-02-28T11:30:00;8.13;;;5.12;;
77571;SDS011;67214;47.454;18.966;2023-02-28T11:32:29;10.20;;;5.72;;
77571;SDS011;67214;47.454;18.966;2023-02-28T11:37:43;7.85;;;5.33;;
77571;SDS011;67214;47.454;18.966;2023-02-28T11:40:15;10.95;;;5.95;;
77571;SDS011;67214;47.454;18.966;2023-02-28T11:42:54;9.93;;;5.78;;
77571;SDS011;67214;47.454;18.966;2023-02-28T11:53:21;6.75;;;4.83;;
77571;SDS011;67214;47.454;18.966;2023-02-28T11:56:00;9.53;;;5.83;;
77571;SDS011;67214;47.454;18.966;2023-02-28T11:58:33;11.12;;;5.72;;
77571;SDS011;67214;47.454;18.966;2023-02-28T12:03:50;9.95;;;5.87;;
77571;SDS011;67214;47.454;18.966;2023-02-28T12:06:37;8.93;;;6.20;;
77571;SDS011;67214;47.454;18.966;2023-02-28T12:09:11;9.33;;;5.97;;
77571;SDS011;67214;47.454;18.966;2023-02-28T12:11:58;7.35;;;5.20;;
77571;SDS011;67214;47.454;18.966;2023-02-28T12:19:58;7.80;;;5.37;;
77571;SDS011;67214;47.454;18.966;2023-02-28T12:27:50;11.22;;;5.97;;
77571;SDS011;67214;47.454;18.966;2023-02-28T12:30:28;7.05;;;5.37;;
77571;SDS011;67214;47.454;18.966;2023-02-28T12:38:28;15.63;;;6.37;;
77571;SDS011;67214;47.454;18.966;2023-02-28T12:41:14;9.43;;;6.05;;
77571;SDS011;67214;47.454;18.966;2023-02-28T12:43:48;8.18;;;5.47;;
77571;SDS011;67214;47.454;18.966;2023-02-28T12:46:18;8.73;;;6.20;;
77571;SDS011;67214;47.454;18.966;2023-02-28T12:48:48;15.13;;;6.62;;
77571;SDS011;67214;47.454;18.966;2023-02-28T12:51:18;10.03;;;6.37;;
77571;SDS011;67214;47.454;18.966;2023-02-28T12:54:07;12.75;;;8.58;;
77571;SDS011;67214;47.454;18.966;2023-02-28T13:08:12;10.30;;;6.42;;
77571;SDS011;67214;47.454;18.966;2023-02-28T13:10:45;14.25;;;7.92;;
77571;SDS011;67214;47.454;18.966;2023-02-28T13:13:18;11.38;;;7.05;;
77571;SDS011;67214;47.454;18.966;2023-02-28T13:18:45;13.62;;;7.85;;
77571;SDS011;67214;47.454;18.966;2023-02-28T13:21:23;11.15;;;6.72;;
77571;SDS011;67214;47.454;18.966;2023-02-28T13:29:49;12.28;;;6.72;;
77571;SDS011;67214;47.454;18.966;2023-02-28T13:34:41;8.60;;;5.62;;
77571;SDS011;67214;47.454;18.966;2023-02-28T13:39:54;7.37;;;5.45;;
77571;SDS011;67214;47.454;18.966;2023-02-28T13:42:33;7.25;;;5.17;;
77571;SDS011;67214;47.454;18.966;2023-02-28T13:47:41;8.18;;;5.87;;
77571;SDS011;67214;47.454;18.966;2023-02-28T13:58:48;8.38;;;5.50;;
77571;SDS011;67214;47.454;18.966;2023-02-28T14:01:16;11.95;;;5.72;;
77571;SDS011;67214;47.454;18.966;2023-02-28T14:03:59;9.80;;;5.97;;
77571;SDS011;67214;47.454;18.966;2023-02-28T14:06:36;15.38;;;5.20;;
77571;SDS011;67214;47.454;18.966;2023-02-28T14:11:56;9.88;;;5.60;;
77571;SDS011;67214;47.454;18.966;2023-02-28T14:17:14;11.88;;;5.42;;
77571;SDS011;67214;47.454;18.966;2023-02-28T14:19:44;17.73;;;7.28;;
77571;SDS011;67214;47.454;18.966;2023-02-28T14:22:38;5.65;;;4.10;;
77571;SDS011;67214;47.454;18.966;2023-02-28T14:30:40;12.45;;;4.53;;
77571;SDS011;67214;47.454;18.966;2023-02-28T14:36:21;11.38;;;6.72;;
77571;SDS011;67214;47.454;18.966;2023-02-28T14:38:54;10.13;;;5.50;;
77571;SDS011;67214;47.454;18.966;2023-02-28T14:41:28;11.18;;;5.53;;
77571;SDS011;67214;47.454;18.966;2023-02-28T14:44:20;12.63;;;5.03;;
77571;SDS011;67214;47.454;18.966;2023-02-28T14:46:50;7.95;;;4.75;;
77571;SDS011;67214;47.454;18.966;2023-02-28T14:49:35;6.65;;;4.60;;
77571;SDS011;67214;47.454;18.966;2023-02-28T14:52:29;10.65;;;6.47;;
77571;SDS011;67214;47.454;18.966;2023-02-28T14:54:55;8.45;;;5.35;;
77571;SDS011;67214;47.454;18.966;2023-02-28T14:57:26;9.60;;;5.47;;
77571;SDS011;67214;47.454;18.966;2023-02-28T15:00:21;8.55;;;4.97;;
77571;SDS011;67214;47.454;18.966;2023-02-28T15:02:44;11.53;;;6.08;;
77571;SDS011;67214;47.454;18.966;2023-02-28T15:07:42;9.28;;;5.42;;
77571;SDS011;67214;47.454;18.966;2023-02-28T15:12:42;8.65;;;4.50;;
77571;SDS011;67214;47.454;18.966;2023-02-28T15:15:16;9.33;;;4.28;;
77571;SDS011;67214;47.454;18.966;2023-02-28T15:17:45;9.45;;;4.60;;
77571;SDS011;67214;47.454;18.966;2023-02-28T15:20:14;12.25;;;5.33;;
77571;SDS011;67214;47.454;18.966;2023-02-28T15:22:44;10.68;;;5.00;;
77571;SDS011;67214;47.454;18.966;2023-02-28T15:25:15;8.33;;;5.42;;
77571;SDS011;67214;47.454;18.966;2023-02-28T15:27:46;8.35;;;5.28;;
77571;SDS011;67214;47.454;18.966;2023-02-28T15:30:24;11.60;;;6.30;;
77571;SDS011;67214;47.454;18.966;2023-02-28T15:33:02;18.50;;;9.85;;
77571;SDS011;67214;47.454;18.966;2023-02-28T15:35:34;13.62;;;6.40;;
77571;SDS011;67214;47.454;18.966;2023-02-28T15:40:57;11.70;;;5.95;;
77571;SDS011;67214;47.454;18.966;2023-02-28T15:43:28;60.40;;;11.70;;
77571;SDS011;67214;47.454;18.966;2023-02-28T15:46:07;61.50;;;11.78;;
77571;SDS011;67214;47.454;18.966;2023-02-28T15:53:51;16.93;;;6.60;;
77571;SDS011;67214;47.454;18.966;2023-02-28T15:56:26;9.70;;;5.92;;
77571;SDS011;67214;47.454;18.966;2023-02-28T15:58:59;9.93;;;5.55;;
77571;SDS011;67214;47.454;18.966;2023-02-28T16:01:30;13.00;;;6.55;;
77571;SDS011;67214;47.454;18.966;2023-02-28T16:04:03;18.35;;;6.53;;
77571;SDS011;67214;47.454;18.966;2023-02-28T16:06:34;15.83;;;6.70;;
77571;SDS011;67214;47.454;18.966;2023-02-28T16:09:04;12.80;;;6.47;;
77571;SDS011;67214;47.454;18.966;2023-02-28T16:11:34;62.60;;;12.43;;
77571;SDS011;67214;47.454;18.966;2023-02-28T16:14:04;25.95;;;8.20;;
77571;SDS011;67214;47.454;18.966;2023-02-28T16:16:32;14.18;;;7.30;;
77571;SDS011;67214;47.454;18.966;2023-02-28T16:19:00;19.92;;;7.95;;
77571;SDS011;67214;47.454;18.966;2023-02-28T16:21:29;16.50;;;8.65;;
77571;SDS011;67214;47.454;18.966;2023-02-28T16:23:58;15.35;;;7.12;;
77571;SDS011;67214;47.454;18.966;2023-02-28T16:26:27;13.85;;;7.37;;
77571;SDS011;67214;47.454;18.966;2023-02-28T16:28:55;13.95;;;7.65;;
77571;SDS011;67214;47.454;18.966;2023-02-28T16:31:25;11.48;;;7.53;;
77571;SDS011;67214;47.454;18.966;2023-02-28T16:33:53;14.15;;;8.10;;
77571;SDS011;67214;47.454;18.966;2023-02-28T16:36:21;12.20;;;8.15;;
77571;SDS011;67214;47.454;18.966;2023-02-28T16:38:53;12.20;;;7.90;;
77571;SDS011;67214;47.454;18.966;2023-02-28T16:41:23;16.70;;;8.28;;
77571;SDS011;67214;47.454;18.966;2023-02-28T16:43:54;12.78;;;8.00;;
77571;SDS011;67214;47.454;18.966;2023-02-28T16:46:27;15.48;;;9.18;;
77571;SDS011;67214;47.454;18.966;2023-02-28T16:48:55;13.58;;;8.38;;
77571;SDS011;67214;47.454;18.966;2023-02-28T16:51:23;18.82;;;8.63;;
77571;SDS011;67214;47.454;18.966;2023-02-28T16:53:50;13.48;;;7.65;;
77571;SDS011;67214;47.454;18.966;2023-02-28T16:56:24;13.53;;;7.53;;
77571;SDS011;67214;47.454;18.966;2023-02-28T16:58:49;13.72;;;8.20;;
77571;SDS011;67214;47.454;18.966;2023-02-28T17:01:19;18.10;;;10.28;;
77571;SDS011;67214;47.454;18.966;2023-02-28T17:03:48;21.45;;;10.70;;
77571;SDS011;67214;47.454;18.966;2023-02-28T17:06:19;15.83;;;9.70;;
77571;SDS011;67214;47.454;18.966;2023-02-28T17:08:48;18.60;;;9.50;;
77571;SDS011;67214;47.454;18.966;2023-02-28T17:11:17;20.95;;;10.98;;
77571;SDS011;67214;47.454;18.966;2023-02-28T17:13:45;14.87;;;9.08;;
77571;SDS011;67214;47.454;18.966;2023-02-28T17:16:16;14.18;;;8.70;;
77571;SDS011;67214;47.454;18.966;2023-02-28T17:18:49;18.42;;;9.15;;
77571;SDS011;67214;47.454;18.966;2023-02-28T17:21:19;19.20;;;9.95;;